Terminal Aerodrome Forecast
Issued by NWS Mt. Holly, NJ

Home | Current Version | Previous Version | Text Only | Print | Product List | Glossary On
Versions: 1 2 3 4 5 6 7 8 9 10 11 12 13 14 15 16 17 18 19 20 21 22 23 24 25 26 27 28
000
FTUS41 KPHI 230527
TAFABE
TAF
KABE 230527Z 2306/2406 VRB03KT P6SM OVC015
     FM230900 00000KT 4SM BR SCT002 BKN012
     FM231200 00000KT 5SM BR SCT012 BKN020
     FM231500 14005KT P6SM BKN025
     FM231800 13008KT P6SM BKN045
     FM240300 15012KT P6SM OVC025=

USA.gov is the U.S. government's official web portal to all federal, state and local government web resources and services.